sensor_id;sensor_type;location;lat;lon;timestamp;temperature;humidity
78733;DHT22;68056;52.530;5.454;2023-06-22T00:01:49;18.90;67.30
78733;DHT22;68056;52.530;5.454;2023-06-22T00:04:15;18.90;67.20
78733;DHT22;68056;52.530;5.454;2023-06-22T00:06:40;18.90;67.30
78733;DHT22;68056;52.530;5.454;2023-06-22T00:09:06;18.90;67.20
78733;DHT22;68056;52.530;5.454;2023-06-22T00:11:35;18.90;67.20
78733;DHT22;68056;52.530;5.454;2023-06-22T00:14:01;18.90;67.30
78733;DHT22;68056;52.530;5.454;2023-06-22T00:16:27;18.90;67.30
78733;DHT22;68056;52.530;5.454;2023-06-22T00:18:53;18.80;67.50
78733;DHT22;68056;52.530;5.454;2023-06-22T00:21:19;18.80;67.50
78733;DHT22;68056;52.530;5.454;2023-06-22T00:23:46;18.80;67.60
78733;DHT22;68056;52.530;5.454;2023-06-22T00:26:13;18.80;67.70
78733;DHT22;68056;52.530;5.454;2023-06-22T00:28:38;18.80;67.70
78733;DHT22;68056;52.530;5.454;2023-06-22T00:31:04;18.80;67.60
78733;DHT22;68056;52.530;5.454;2023-06-22T00:33:30;18.80;67.60
78733;DHT22;68056;52.530;5.454;2023-06-22T00:35:56;18.70;67.60
78733;DHT22;68056;52.530;5.454;2023-06-22T00:38:22;18.70;67.80
78733;DHT22;68056;52.530;5.454;2023-06-22T00:40:48;18.70;67.80
78733;DHT22;68056;52.530;5.454;2023-06-22T00:43:14;18.70;67.90
78733;DHT22;68056;52.530;5.454;2023-06-22T00:45:39;18.60;68.00
78733;DHT22;68056;52.530;5.454;2023-06-22T00:48:05;18.60;68.00
78733;DHT22;68056;52.530;5.454;2023-06-22T00:50:33;18.60;68.20
78733;DHT22;68056;52.530;5.454;2023-06-22T00:53:06;18.50;68.10
78733;DHT22;68056;52.530;5.454;2023-06-22T00:55:42;18.50;68.10
78733;DHT22;68056;52.530;5.454;2023-06-22T00:58:12;18.50;68.00
78733;DHT22;68056;52.530;5.454;2023-06-22T01:00:39;18.50;68.00
78733;DHT22;68056;52.530;5.454;2023-06-22T01:03:05;18.50;68.00
78733;DHT22;68056;52.530;5.454;2023-06-22T01:05:34;18.50;68.00
78733;DHT22;68056;52.530;5.454;2023-06-22T01:11:07;18.50;68.20
78733;DHT22;68056;52.530;5.454;2023-06-22T01:13:45;18.50;68.00
78733;DHT22;68056;52.530;5.454;2023-06-22T01:16:29;18.40;68.10
78733;DHT22;68056;52.530;5.454;2023-06-22T01:18:57;18.40;68.10
78733;DHT22;68056;52.530;5.454;2023-06-22T01:21:28;18.40;68.10
78733;DHT22;68056;52.530;5.454;2023-06-22T01:29:10;18.30;68.10
78733;DHT22;68056;52.530;5.454;2023-06-22T01:31:39;18.30;68.20
78733;DHT22;68056;52.530;5.454;2023-06-22T01:34:07;18.30;68.20
78733;DHT22;68056;52.530;5.454;2023-06-22T01:36:34;18.20;68.30
78733;DHT22;68056;52.530;5.454;2023-06-22T01:39:02;18.20;68.30
78733;DHT22;68056;52.530;5.454;2023-06-22T01:41:30;18.20;68.30
78733;DHT22;68056;52.530;5.454;2023-06-22T01:43:56;18.20;68.30
78733;DHT22;68056;52.530;5.454;2023-06-22T01:46:23;18.20;68.30
78733;DHT22;68056;52.530;5.454;2023-06-22T01:48:49;18.20;68.40
78733;DHT22;68056;52.530;5.454;2023-06-22T01:51:16;18.10;68.40
78733;DHT22;68056;52.530;5.454;2023-06-22T01:53:42;18.10;68.50
78733;DHT22;68056;52.530;5.454;2023-06-22T01:56:08;18.10;68.40
78733;DHT22;68056;52.530;5.454;2023-06-22T01:58:37;18.10;68.50
78733;DHT22;68056;52.530;5.454;2023-06-22T02:01:12;18.00;68.60
78733;DHT22;68056;52.530;5.454;2023-06-22T02:03:46;18.00;68.60
78733;DHT22;68056;52.530;5.454;2023-06-22T02:06:35;18.00;68.70
78733;DHT22;68056;52.530;5.454;2023-06-22T02:09:06;18.00;68.70
78733;DHT22;68056;52.530;5.454;2023-06-22T02:11:35;18.00;68.80
78733;DHT22;68056;52.530;5.454;2023-06-22T02:14:01;17.90;68.80
78733;DHT22;68056;52.530;5.454;2023-06-22T02:16:27;17.90;68.80
78733;DHT22;68056;52.530;5.454;2023-06-22T02:18:56;17.80;68.80
78733;DHT22;68056;52.530;5.454;2023-06-22T02:21:27;17.80;68.80
78733;DHT22;68056;52.530;5.454;2023-06-22T02:23:52;17.80;68.90
78733;DHT22;68056;52.530;5.454;2023-06-22T02:26:18;17.80;68.80
78733;DHT22;68056;52.530;5.454;2023-06-22T02:28:44;17.80;68.70
78733;DHT22;68056;52.530;5.454;2023-06-22T02:31:10;17.80;68.80
78733;DHT22;68056;52.530;5.454;2023-06-22T02:33:36;17.80;68.90
78733;DHT22;68056;52.530;5.454;2023-06-22T02:36:02;17.80;69.00
78733;DHT22;68056;52.530;5.454;2023-06-22T02:38:31;17.70;69.00
78733;DHT22;68056;52.530;5.454;2023-06-22T02:41:00;17.60;69.00
78733;DHT22;68056;52.530;5.454;2023-06-22T02:43:25;17.60;69.00
78733;DHT22;68056;52.530;5.454;2023-06-22T02:45:51;17.50;69.00
78733;DHT22;68056;52.530;5.454;2023-06-22T02:48:17;17.60;69.00
78733;DHT22;68056;52.530;5.454;2023-06-22T02:50:42;17.50;69.00
78733;DHT22;68056;52.530;5.454;2023-06-22T02:53:08;17.50;69.10
78733;DHT22;68056;52.530;5.454;2023-06-22T02:55:36;17.50;69.20
78733;DHT22;68056;52.530;5.454;2023-06-22T02:58:02;17.50;69.30
78733;DHT22;68056;52.530;5.454;2023-06-22T03:00:32;17.40;69.30
78733;DHT22;68056;52.530;5.454;2023-06-22T03:03:01;17.40;69.30
78733;DHT22;68056;52.530;5.454;2023-06-22T03:05:26;17.40;69.30
78733;DHT22;68056;52.530;5.454;2023-06-22T03:08:01;17.40;69.30
78733;DHT22;68056;52.530;5.454;2023-06-22T03:10:27;17.40;69.30
78733;DHT22;68056;52.530;5.454;2023-06-22T03:12:52;17.40;69.30
78733;DHT22;68056;52.530;5.454;2023-06-22T03:15:18;17.40;69.30
78733;DHT22;68056;52.530;5.454;2023-06-22T03:17:46;17.40;69.30
78733;DHT22;68056;52.530;5.454;2023-06-22T03:20:12;17.40;69.40
78733;DHT22;68056;52.530;5.454;2023-06-22T03:22:39;17.30;69.40
78733;DHT22;68056;52.530;5.454;2023-06-22T03:25:09;17.30;69.40
78733;DHT22;68056;52.530;5.454;2023-06-22T03:27:41;17.30;69.40
78733;DHT22;68056;52.530;5.454;2023-06-22T03:30:09;17.30;69.40
78733;DHT22;68056;52.530;5.454;2023-06-22T03:32:35;17.30;69.30
78733;DHT22;68056;52.530;5.454;2023-06-22T03:35:01;17.20;69.30
78733;DHT22;68056;52.530;5.454;2023-06-22T03:37:28;17.20;69.40
78733;DHT22;68056;52.530;5.454;2023-06-22T03:39:54;17.20;69.40
78733;DHT22;68056;52.530;5.454;2023-06-22T03:42:29;17.30;69.40
78733;DHT22;68056;52.530;5.454;2023-06-22T03:45:00;17.30;69.40
78733;DHT22;68056;52.530;5.454;2023-06-22T03:47:26;17.30;69.40
78733;DHT22;68056;52.530;5.454;2023-06-22T03:49:52;17.40;69.30
78733;DHT22;68056;52.530;5.454;2023-06-22T03:52:21;17.30;69.30
78733;DHT22;68056;52.530;5.454;2023-06-22T03:54:47;17.30;69.30
78733;DHT22;68056;52.530;5.454;2023-06-22T03:57:13;17.20;69.40
78733;DHT22;68056;52.530;5.454;2023-06-22T03:59:39;17.20;69.40
78733;DHT22;68056;52.530;5.454;2023-06-22T04:02:05;17.20;69.50
78733;DHT22;68056;52.530;5.454;2023-06-22T04:04:31;17.20;69.50
78733;DHT22;68056;52.530;5.454;2023-06-22T04:06:56;17.20;69.50
78733;DHT22;68056;52.530;5.454;2023-06-22T04:09:23;17.20;69.50
78733;DHT22;68056;52.530;5.454;2023-06-22T04:11:49;17.20;69.60
78733;DHT22;68056;52.530;5.454;2023-06-22T04:14:15;17.20;69.50
78733;DHT22;68056;52.530;5.454;2023-06-22T04:16:41;17.20;69.50
78733;DHT22;68056;52.530;5.454;2023-06-22T04:19:07;17.20;69.60
78733;DHT22;68056;52.530;5.454;2023-06-22T04:21:32;17.20;69.60
78733;DHT22;68056;52.530;5.454;2023-06-22T04:23:58;17.20;69.70
78733;DHT22;68056;52.530;5.454;2023-06-22T04:26:24;17.20;69.70
78733;DHT22;68056;52.530;5.454;2023-06-22T04:28:50;17.20;69.70
78733;DHT22;68056;52.530;5.454;2023-06-22T04:31:17;17.20;69.70
78733;DHT22;68056;52.530;5.454;2023-06-22T04:33:44;17.20;69.70
78733;DHT22;68056;52.530;5.454;2023-06-22T04:36:09;17.20;69.70
78733;DHT22;68056;52.530;5.454;2023-06-22T04:38:39;17.20;69.70
78733;DHT22;68056;52.530;5.454;2023-06-22T04:41:04;17.30;69.70
78733;DHT22;68056;52.530;5.454;2023-06-22T04:43:30;17.40;69.70
78733;DHT22;68056;52.530;5.454;2023-06-22T04:45:58;17.40;69.80
78733;DHT22;68056;52.530;5.454;2023-06-22T04:48:29;17.40;69.80
78733;DHT22;68056;52.530;5.454;2023-06-22T04:51:01;17.40;69.80
78733;DHT22;68056;52.530;5.454;2023-06-22T04:53:30;17.50;69.90
78733;DHT22;68056;52.530;5.454;2023-06-22T04:55:56;17.50;70.00
78733;DHT22;68056;52.530;5.454;2023-06-22T04:58:21;17.50;70.10
78733;DHT22;68056;52.530;5.454;2023-06-22T05:00:47;17.50;70.30
78733;DHT22;68056;52.530;5.454;2023-06-22T05:03:13;17.50;70.40
78733;DHT22;68056;52.530;5.454;2023-06-22T05:05:40;17.60;70.40
78733;DHT22;68056;52.530;5.454;2023-06-22T05:08:05;17.60;70.50
78733;DHT22;68056;52.530;5.454;2023-06-22T05:10:33;17.80;70.50
78733;DHT22;68056;52.530;5.454;2023-06-22T05:13:10;17.80;70.60
78733;DHT22;68056;52.530;5.454;2023-06-22T05:15:39;17.80;70.70
78733;DHT22;68056;52.530;5.454;2023-06-22T05:18:06;18.00;70.70
78733;DHT22;68056;52.530;5.454;2023-06-22T05:20:31;18.00;70.70
78733;DHT22;68056;52.530;5.454;2023-06-22T05:22:59;18.00;70.80
78733;DHT22;68056;52.530;5.454;2023-06-22T05:25:25;18.10;71.00
78733;DHT22;68056;52.530;5.454;2023-06-22T05:27:57;18.10;71.20
78733;DHT22;68056;52.530;5.454;2023-06-22T05:30:23;18.20;71.30
78733;DHT22;68056;52.530;5.454;2023-06-22T05:32:49;18.30;71.30
78733;DHT22;68056;52.530;5.454;2023-06-22T05:35:15;18.40;71.20
78733;DHT22;68056;52.530;5.454;2023-06-22T05:37:41;18.50;71.40
78733;DHT22;68056;52.530;5.454;2023-06-22T05:40:24;18.50;71.40
78733;DHT22;68056;52.530;5.454;2023-06-22T05:42:50;18.60;71.50
78733;DHT22;68056;52.530;5.454;2023-06-22T05:45:16;18.60;71.40
78733;DHT22;68056;52.530;5.454;2023-06-22T05:47:42;18.70;71.50
78733;DHT22;68056;52.530;5.454;2023-06-22T05:50:08;18.80;71.50
78733;DHT22;68056;52.530;5.454;2023-06-22T05:52:34;18.90;71.60
78733;DHT22;68056;52.530;5.454;2023-06-22T05:55:01;19.00;71.60
78733;DHT22;68056;52.530;5.454;2023-06-22T05:57:27;19.10;71.60
78733;DHT22;68056;52.530;5.454;2023-06-22T05:59:53;19.30;71.50
78733;DHT22;68056;52.530;5.454;2023-06-22T06:02:28;19.40;71.10
78733;DHT22;68056;52.530;5.454;2023-06-22T06:04:56;19.50;71.10
78733;DHT22;68056;52.530;5.454;2023-06-22T06:07:22;19.70;71.00
78733;DHT22;68056;52.530;5.454;2023-06-22T06:09:55;20.00;70.90
78733;DHT22;68056;52.530;5.454;2023-06-22T06:12:32;20.30;70.90
78733;DHT22;68056;52.530;5.454;2023-06-22T06:15:05;20.50;70.60
78733;DHT22;68056;52.530;5.454;2023-06-22T06:17:31;20.80;70.30
78733;DHT22;68056;52.530;5.454;2023-06-22T06:19:59;21.10;70.00
78733;DHT22;68056;52.530;5.454;2023-06-22T06:22:28;21.40;69.70
78733;DHT22;68056;52.530;5.454;2023-06-22T06:25:02;21.60;69.30
78733;DHT22;68056;52.530;5.454;2023-06-22T06:27:28;21.80;69.00
78733;DHT22;68056;52.530;5.454;2023-06-22T06:29:54;21.90;68.70
78733;DHT22;68056;52.530;5.454;2023-06-22T06:32:20;21.80;68.60
78733;DHT22;68056;52.530;5.454;2023-06-22T06:34:45;21.70;68.90
78733;DHT22;68056;52.530;5.454;2023-06-22T06:37:11;21.60;69.00
78733;DHT22;68056;52.530;5.454;2023-06-22T06:39:37;21.60;69.10
78733;DHT22;68056;52.530;5.454;2023-06-22T06:42:03;21.60;69.10
78733;DHT22;68056;52.530;5.454;2023-06-22T06:44:29;21.70;69.00
78733;DHT22;68056;52.530;5.454;2023-06-22T06:46:55;21.70;68.90
78733;DHT22;68056;52.530;5.454;2023-06-22T06:49:20;21.80;68.70
78733;DHT22;68056;52.530;5.454;2023-06-22T06:51:52;21.90;68.70
78733;DHT22;68056;52.530;5.454;2023-06-22T06:54:23;21.90;68.60
78733;DHT22;68056;52.530;5.454;2023-06-22T06:56:49;21.90;68.50
78733;DHT22;68056;52.530;5.454;2023-06-22T06:59:15;22.10;68.30
78733;DHT22;68056;52.530;5.454;2023-06-22T07:01:42;22.20;68.00
78733;DHT22;68056;52.530;5.454;2023-06-22T07:04:09;22.50;67.80
78733;DHT22;68056;52.530;5.454;2023-06-22T07:06:37;22.70;67.50
78733;DHT22;68056;52.530;5.454;2023-06-22T07:09:05;23.00;67.10
78733;DHT22;68056;52.530;5.454;2023-06-22T07:11:30;23.20;66.60
78733;DHT22;68056;52.530;5.454;2023-06-22T07:13:56;23.30;66.60
78733;DHT22;68056;52.530;5.454;2023-06-22T07:16:22;23.50;66.30
78733;DHT22;68056;52.530;5.454;2023-06-22T07:18:48;23.70;66.10
78733;DHT22;68056;52.530;5.454;2023-06-22T07:21:23;23.90;66.10
78733;DHT22;68056;52.530;5.454;2023-06-22T07:23:54;24.00;65.80
78733;DHT22;68056;52.530;5.454;2023-06-22T07:26:20;24.20;65.60
78733;DHT22;68056;52.530;5.454;2023-06-22T07:28:46;24.00;65.60
78733;DHT22;68056;52.530;5.454;2023-06-22T07:31:22;24.20;65.50
78733;DHT22;68056;52.530;5.454;2023-06-22T07:36:23;24.30;65.00
78733;DHT22;68056;52.530;5.454;2023-06-22T07:38:49;24.30;65.00
78733;DHT22;68056;52.530;5.454;2023-06-22T07:41:15;24.40;65.00
78733;DHT22;68056;52.530;5.454;2023-06-22T07:43:41;24.60;64.70
78733;DHT22;68056;52.530;5.454;2023-06-22T07:46:06;24.70;64.30
78733;DHT22;68056;52.530;5.454;2023-06-22T07:48:32;24.80;64.00
78733;DHT22;68056;52.530;5.454;2023-06-22T07:50:58;25.00;63.70
78733;DHT22;68056;52.530;5.454;2023-06-22T07:53:23;25.30;63.50
78733;DHT22;68056;52.530;5.454;2023-06-22T07:55:50;25.50;63.20
78733;DHT22;68056;52.530;5.454;2023-06-22T07:58:15;25.80;62.90
78733;DHT22;68056;52.530;5.454;2023-06-22T08:00:41;26.00;62.60
78733;DHT22;68056;52.530;5.454;2023-06-22T08:03:07;26.20;62.10
78733;DHT22;68056;52.530;5.454;2023-06-22T08:05:32;26.50;61.90
78733;DHT22;68056;52.530;5.454;2023-06-22T08:07:58;26.70;61.60
78733;DHT22;68056;52.530;5.454;2023-06-22T08:10:24;26.80;61.20
78733;DHT22;68056;52.530;5.454;2023-06-22T08:12:50;26.80;60.90
78733;DHT22;68056;52.530;5.454;2023-06-22T08:15:17;27.00;60.50
78733;DHT22;68056;52.530;5.454;2023-06-22T08:17:44;27.10;60.20
78733;DHT22;68056;52.530;5.454;2023-06-22T08:20:10;27.20;59.80
78733;DHT22;68056;52.530;5.454;2023-06-22T08:22:39;27.20;59.80
78733;DHT22;68056;52.530;5.454;2023-06-22T08:25:05;27.40;59.80
78733;DHT22;68056;52.530;5.454;2023-06-22T08:27:31;27.50;59.60
78733;DHT22;68056;52.530;5.454;2023-06-22T08:29:58;27.50;59.40
78733;DHT22;68056;52.530;5.454;2023-06-22T08:32:25;27.50;59.40
78733;DHT22;68056;52.530;5.454;2023-06-22T08:34:53;27.80;59.20
78733;DHT22;68056;52.530;5.454;2023-06-22T08:37:19;28.00;59.20
78733;DHT22;68056;52.530;5.454;2023-06-22T08:39:45;28.30;58.90
78733;DHT22;68056;52.530;5.454;2023-06-22T08:42:11;28.40;58.70
78733;DHT22;68056;52.530;5.454;2023-06-22T08:44:37;28.60;58.40
78733;DHT22;68056;52.530;5.454;2023-06-22T08:47:03;28.70;58.10
78733;DHT22;68056;52.530;5.454;2023-06-22T08:49:29;28.80;57.90
78733;DHT22;68056;52.530;5.454;2023-06-22T08:51:54;28.90;57.60
78733;DHT22;68056;52.530;5.454;2023-06-22T08:54:22;28.90;57.50
78733;DHT22;68056;52.530;5.454;2023-06-22T08:56:48;29.00;57.50
78733;DHT22;68056;52.530;5.454;2023-06-22T08:59:14;29.20;57.00
78733;DHT22;68056;52.530;5.454;2023-06-22T09:01:39;29.30;56.60
78733;DHT22;68056;52.530;5.454;2023-06-22T09:04:05;29.30;56.40
78733;DHT22;68056;52.530;5.454;2023-06-22T09:06:32;29.20;56.30
78733;DHT22;68056;52.530;5.454;2023-06-22T09:08:58;29.30;56.50
78733;DHT22;68056;52.530;5.454;2023-06-22T09:11:26;29.60;56.40
78733;DHT22;68056;52.530;5.454;2023-06-22T09:13:52;29.70;55.80
78733;DHT22;68056;52.530;5.454;2023-06-22T09:16:18;29.50;55.70
78733;DHT22;68056;52.530;5.454;2023-06-22T09:18:47;29.50;55.90
78733;DHT22;68056;52.530;5.454;2023-06-22T09:21:13;29.50;56.00
78733;DHT22;68056;52.530;5.454;2023-06-22T09:23:39;29.70;56.10
78733;DHT22;68056;52.530;5.454;2023-06-22T09:26:05;29.90;55.60
78733;DHT22;68056;52.530;5.454;2023-06-22T09:28:31;30.00;55.30
78733;DHT22;68056;52.530;5.454;2023-06-22T09:30:56;30.10;55.10
78733;DHT22;68056;52.530;5.454;2023-06-22T09:33:25;30.10;54.70
78733;DHT22;68056;52.530;5.454;2023-06-22T09:35:50;30.10;54.50
78733;DHT22;68056;52.530;5.454;2023-06-22T09:38:16;30.20;54.30
78733;DHT22;68056;52.530;5.454;2023-06-22T09:40:42;30.50;54.10
78733;DHT22;68056;52.530;5.454;2023-06-22T09:43:08;30.50;53.70
78733;DHT22;68056;52.530;5.454;2023-06-22T09:45:33;30.50;53.80
78733;DHT22;68056;52.530;5.454;2023-06-22T09:47:59;30.60;53.90
78733;DHT22;68056;52.530;5.454;2023-06-22T09:50:25;30.70;54.00
78733;DHT22;68056;52.530;5.454;2023-06-22T09:52:50;30.80;53.90
78733;DHT22;68056;52.530;5.454;2023-06-22T09:55:20;30.80;53.90
78733;DHT22;68056;52.530;5.454;2023-06-22T09:57:46;30.80;53.90
78733;DHT22;68056;52.530;5.454;2023-06-22T10:00:12;31.00;53.60
78733;DHT22;68056;52.530;5.454;2023-06-22T10:02:39;31.00;53.30
78733;DHT22;68056;52.530;5.454;2023-06-22T10:05:05;31.00;53.40
78733;DHT22;68056;52.530;5.454;2023-06-22T10:07:33;30.90;53.50
78733;DHT22;68056;52.530;5.454;2023-06-22T10:09:58;30.80;53.40
78733;DHT22;68056;52.530;5.454;2023-06-22T10:12:25;30.70;53.40
78733;DHT22;68056;52.530;5.454;2023-06-22T10:14:50;30.60;53.50
78733;DHT22;68056;52.530;5.454;2023-06-22T10:17:16;30.70;53.20
78733;DHT22;68056;52.530;5.454;2023-06-22T10:19:42;30.60;53.30
78733;DHT22;68056;52.530;5.454;2023-06-22T10:22:07;30.70;53.60
78733;DHT22;68056;52.530;5.454;2023-06-22T10:24:33;30.60;53.50
78733;DHT22;68056;52.530;5.454;2023-06-22T10:26:59;30.50;53.60
78733;DHT22;68056;52.530;5.454;2023-06-22T10:29:24;30.20;54.00
78733;DHT22;68056;52.530;5.454;2023-06-22T10:31:50;30.10;54.00
78733;DHT22;68056;52.530;5.454;2023-06-22T10:34:16;29.90;54.20
78733;DHT22;68056;52.530;5.454;2023-06-22T10:36:41;29.70;54.40
78733;DHT22;68056;52.530;5.454;2023-06-22T10:39:07;29.50;54.70
78733;DHT22;68056;52.530;5.454;2023-06-22T10:41:33;29.40;54.70
78733;DHT22;68056;52.530;5.454;2023-06-22T10:44:00;29.30;54.90
78733;DHT22;68056;52.530;5.454;2023-06-22T10:46:26;29.10;55.10
78733;DHT22;68056;52.530;5.454;2023-06-22T10:48:52;29.00;55.20
78733;DHT22;68056;52.530;5.454;2023-06-22T10:51:20;28.90;55.30
78733;DHT22;68056;52.530;5.454;2023-06-22T10:53:46;28.70;55.30
78733;DHT22;68056;52.530;5.454;2023-06-22T10:56:11;28.50;55.40
78733;DHT22;68056;52.530;5.454;2023-06-22T10:58:37;28.30;55.60
78733;DHT22;68056;52.530;5.454;2023-06-22T11:01:03;28.20;55.70
78733;DHT22;68056;52.530;5.454;2023-06-22T11:03:28;28.00;55.80
78733;DHT22;68056;52.530;5.454;2023-06-22T11:05:54;27.90;56.00
78733;DHT22;68056;52.530;5.454;2023-06-22T11:08:20;27.80;56.00
78733;DHT22;68056;52.530;5.454;2023-06-22T11:10:45;27.70;55.90
78733;DHT22;68056;52.530;5.454;2023-06-22T11:13:12;27.70;56.10
78733;DHT22;68056;52.530;5.454;2023-06-22T11:15:40;27.50;56.10
78733;DHT22;68056;52.530;5.454;2023-06-22T11:18:06;27.50;56.10
78733;DHT22;68056;52.530;5.454;2023-06-22T11:20:33;27.40;56.20
78733;DHT22;68056;52.530;5.454;2023-06-22T11:23:04;27.40;56.30
78733;DHT22;68056;52.530;5.454;2023-06-22T11:25:30;27.30;56.30
78733;DHT22;68056;52.530;5.454;2023-06-22T11:27:56;27.30;56.30
78733;DHT22;68056;52.530;5.454;2023-06-22T11:30:21;27.30;56.50
78733;DHT22;68056;52.530;5.454;2023-06-22T11:32:48;27.20;56.40
78733;DHT22;68056;52.530;5.454;2023-06-22T11:35:14;27.00;56.60
78733;DHT22;68056;52.530;5.454;2023-06-22T11:37:39;27.00;56.70
78733;DHT22;68056;52.530;5.454;2023-06-22T11:40:06;26.90;56.70
78733;DHT22;68056;52.530;5.454;2023-06-22T11:42:34;26.90;56.70
78733;DHT22;68056;52.530;5.454;2023-06-22T11:45:00;26.80;56.60
78733;DHT22;68056;52.530;5.454;2023-06-22T11:47:26;26.80;56.80
78733;DHT22;68056;52.530;5.454;2023-06-22T11:49:51;26.70;56.80
78733;DHT22;68056;52.530;5.454;2023-06-22T11:52:17;26.60;57.00
78733;DHT22;68056;52.530;5.454;2023-06-22T11:54:45;26.60;57.00
78733;DHT22;68056;52.530;5.454;2023-06-22T11:57:11;26.60;57.00
78733;DHT22;68056;52.530;5.454;2023-06-22T11:59:36;26.60;57.10
78733;DHT22;68056;52.530;5.454;2023-06-22T12:02:02;26.50;57.10
78733;DHT22;68056;52.530;5.454;2023-06-22T12:04:28;26.50;57.10
78733;DHT22;68056;52.530;5.454;2023-06-22T12:06:54;26.50;57.00
78733;DHT22;68056;52.530;5.454;2023-06-22T12:09:20;26.40;57.00
78733;DHT22;68056;52.530;5.454;2023-06-22T12:11:45;26.40;57.00
78733;DHT22;68056;52.530;5.454;2023-06-22T12:14:11;26.30;57.10
78733;DHT22;68056;52.530;5.454;2023-06-22T12:16:37;26.30;57.10
78733;DHT22;68056;52.530;5.454;2023-06-22T12:19:03;26.20;57.10
78733;DHT22;68056;52.530;5.454;2023-06-22T12:21:28;26.30;57.20
78733;DHT22;68056;52.530;5.454;2023-06-22T12:23:54;26.30;57.20
78733;DHT22;68056;52.530;5.454;2023-06-22T12:26:19;26.30;57.10
78733;DHT22;68056;52.530;5.454;2023-06-22T12:28:45;26.30;57.00
78733;DHT22;68056;52.530;5.454;2023-06-22T12:31:11;26.30;57.10
78733;DHT22;68056;52.530;5.454;2023-06-22T12:33:36;26.40;57.30
78733;DHT22;68056;52.530;5.454;2023-06-22T12:36:02;26.40;57.40
78733;DHT22;68056;52.530;5.454;2023-06-22T12:38:28;26.40;57.50
78733;DHT22;68056;52.530;5.454;2023-06-22T12:40:54;26.40;57.50
78733;DHT22;68056;52.530;5.454;2023-06-22T12:43:19;26.40;57.70
78733;DHT22;68056;52.530;5.454;2023-06-22T12:45:45;26.40;57.90
78733;DHT22;68056;52.530;5.454;2023-06-22T12:48:11;26.40;57.80
78733;DHT22;68056;52.530;5.454;2023-06-22T12:50:38;26.40;57.70
78733;DHT22;68056;52.530;5.454;2023-06-22T12:53:03;26.40;57.50
78733;DHT22;68056;52.530;5.454;2023-06-22T12:55:30;26.40;57.60
78733;DHT22;68056;52.530;5.454;2023-06-22T12:57:55;26.40;57.60
78733;DHT22;68056;52.530;5.454;2023-06-22T13:00:21;26.40;57.70
78733;DHT22;68056;52.530;5.454;2023-06-22T13:02:47;26.30;57.90
78733;DHT22;68056;52.530;5.454;2023-06-22T13:05:12;26.20;58.00
78733;DHT22;68056;52.530;5.454;2023-06-22T13:07:38;26.20;58.10
78733;DHT22;68056;52.530;5.454;2023-06-22T13:10:04;26.20;58.00
78733;DHT22;68056;52.530;5.454;2023-06-22T13:12:29;26.20;58.00
78733;DHT22;68056;52.530;5.454;2023-06-22T13:14:55;26.20;58.20
78733;DHT22;68056;52.530;5.454;2023-06-22T13:17:21;26.10;58.20
78733;DHT22;68056;52.530;5.454;2023-06-22T13:19:46;26.10;58.30
78733;DHT22;68056;52.530;5.454;2023-06-22T13:22:32;26.00;58.40
78733;DHT22;68056;52.530;5.454;2023-06-22T13:24:58;26.00;58.40
78733;DHT22;68056;52.530;5.454;2023-06-22T13:27:24;26.00;58.20
78733;DHT22;68056;52.530;5.454;2023-06-22T13:29:50;26.00;58.20
78733;DHT22;68056;52.530;5.454;2023-06-22T13:32:16;26.00;58.20
78733;DHT22;68056;52.530;5.454;2023-06-22T13:34:42;25.90;58.40
78733;DHT22;68056;52.530;5.454;2023-06-22T13:37:08;25.90;58.50
78733;DHT22;68056;52.530;5.454;2023-06-22T13:39:33;25.90;58.30
78733;DHT22;68056;52.530;5.454;2023-06-22T13:41:59;25.80;58.50
78733;DHT22;68056;52.530;5.454;2023-06-22T13:44:24;25.80;58.90
78733;DHT22;68056;52.530;5.454;2023-06-22T13:46:54;25.80;59.10
78733;DHT22;68056;52.530;5.454;2023-06-22T13:49:20;25.80;59.30
78733;DHT22;68056;52.530;5.454;2023-06-22T13:51:47;25.70;59.40
78733;DHT22;68056;52.530;5.454;2023-06-22T13:54:13;25.60;59.60
78733;DHT22;68056;52.530;5.454;2023-06-22T13:56:40;25.60;59.70
78733;DHT22;68056;52.530;5.454;2023-06-22T13:59:07;25.60;60.10
78733;DHT22;68056;52.530;5.454;2023-06-22T14:01:35;25.60;60.20
78733;DHT22;68056;52.530;5.454;2023-06-22T14:04:01;25.50;60.40
78733;DHT22;68056;52.530;5.454;2023-06-22T14:06:29;25.50;60.40
78733;DHT22;68056;52.530;5.454;2023-06-22T14:08:55;25.50;60.60
78733;DHT22;68056;52.530;5.454;2023-06-22T14:11:21;25.40;60.70
78733;DHT22;68056;52.530;5.454;2023-06-22T14:13:47;25.40;60.90
78733;DHT22;68056;52.530;5.454;2023-06-22T14:16:12;25.40;61.00
78733;DHT22;68056;52.530;5.454;2023-06-22T14:18:38;25.30;61.10
78733;DHT22;68056;52.530;5.454;2023-06-22T14:21:04;25.30;61.30
78733;DHT22;68056;52.530;5.454;2023-06-22T14:23:29;25.20;61.30
78733;DHT22;68056;52.530;5.454;2023-06-22T14:25:55;25.20;61.40
78733;DHT22;68056;52.530;5.454;2023-06-22T14:28:20;25.20;61.50
78733;DHT22;68056;52.530;5.454;2023-06-22T14:30:46;25.20;61.40
78733;DHT22;68056;52.530;5.454;2023-06-22T14:33:12;25.10;61.40
78733;DHT22;68056;52.530;5.454;2023-06-22T14:35:38;25.00;61.50
78733;DHT22;68056;52.530;5.454;2023-06-22T14:38:04;25.00;61.70
78733;DHT22;68056;52.530;5.454;2023-06-22T14:40:31;25.00;61.90
78733;DHT22;68056;52.530;5.454;2023-06-22T14:42:56;24.90;62.20
78733;DHT22;68056;52.530;5.454;2023-06-22T14:45:23;24.80;62.30
78733;DHT22;68056;52.530;5.454;2023-06-22T14:47:49;24.80;62.30
78733;DHT22;68056;52.530;5.454;2023-06-22T14:50:14;24.70;62.50
78733;DHT22;68056;52.530;5.454;2023-06-22T14:52:40;24.70;62.70
78733;DHT22;68056;52.530;5.454;2023-06-22T14:55:06;24.70;63.00
78733;DHT22;68056;52.530;5.454;2023-06-22T14:57:31;24.70;63.50
78733;DHT22;68056;52.530;5.454;2023-06-22T14:59:57;24.60;63.70
78733;DHT22;68056;52.530;5.454;2023-06-22T15:02:23;24.60;64.00
78733;DHT22;68056;52.530;5.454;2023-06-22T15:04:48;24.50;64.20
78733;DHT22;68056;52.530;5.454;2023-06-22T15:07:14;24.50;64.30
78733;DHT22;68056;52.530;5.454;2023-06-22T15:09:40;24.40;64.60
78733;DHT22;68056;52.530;5.454;2023-06-22T15:12:08;24.40;64.70
78733;DHT22;68056;52.530;5.454;2023-06-22T15:14:40;24.30;64.90
78733;DHT22;68056;52.530;5.454;2023-06-22T15:17:09;24.20;65.20
78733;DHT22;68056;52.530;5.454;2023-06-22T15:19:35;24.10;65.70
78733;DHT22;68056;52.530;5.454;2023-06-22T15:22:04;24.10;66.00
78733;DHT22;68056;52.530;5.454;2023-06-22T15:24:30;24.00;66.20
78733;DHT22;68056;52.530;5.454;2023-06-22T15:26:58;24.00;66.30
78733;DHT22;68056;52.530;5.454;2023-06-22T15:29:24;24.00;66.20
78733;DHT22;68056;52.530;5.454;2023-06-22T15:31:53;24.00;66.20
78733;DHT22;68056;52.530;5.454;2023-06-22T15:34:19;24.00;66.50
78733;DHT22;68056;52.530;5.454;2023-06-22T15:36:45;24.00;66.50
78733;DHT22;68056;52.530;5.454;2023-06-22T15:39:11;23.90;66.70